createdAt,value
2023-04-25T00:01:50.898Z,61.76
2023-04-25T00:04:18.198Z,61.58
2023-04-25T00:06:44.674Z,61.53
2023-04-25T00:09:11.230Z,61.43
2023-04-25T00:11:37.800Z,61.42
2023-04-25T00:14:04.435Z,61.44
2023-04-25T00:16:30.897Z,61.28
2023-04-25T00:18:57.805Z,61.80
2023-04-25T00:21:24.353Z,61.44
2023-04-25T00:23:51.136Z,61.46
2023-04-25T00:26:17.817Z,61.41
2023-04-25T00:28:44.257Z,61.58
2023-04-25T00:31:10.723Z,61.38
2023-04-25T00:33:37.162Z,61.25
2023-04-25T00:36:03.520Z,61.60
2023-04-25T00:38:30.004Z,61.64
2023-04-25T00:40:56.448Z,61.18
2023-04-25T00:43:22.832Z,61.37
2023-04-25T00:45:49.384Z,61.61
2023-04-25T00:48:15.876Z,61.41
2023-04-25T00:50:42.244Z,61.46
2023-04-25T00:53:08.663Z,61.47
2023-04-25T00:55:35.161Z,61.04
2023-04-25T00:58:01.667Z,61.35
2023-04-25T01:00:28.150Z,61.05
2023-04-25T01:02:55.002Z,61.18
2023-04-25T01:05:22.312Z,61.02
2023-04-25T01:07:50.034Z,61.19
2023-04-25T01:10:16.962Z,60.98
2023-04-25T01:12:43.476Z,61.14
2023-04-25T01:15:09.979Z,61.00
2023-04-25T01:17:36.993Z,61.35
2023-04-25T01:20:04.332Z,60.96
2023-04-25T01:22:31.254Z,60.96
2023-04-25T01:24:57.818Z,61.11
2023-04-25T01:27:24.982Z,60.97
2023-04-25T01:29:51.790Z,60.80
2023-04-25T01:32:18.443Z,61.13
2023-04-25T01:34:45.542Z,60.90
2023-04-25T01:37:11.951Z,60.88
2023-04-25T01:39:38.682Z,60.99
2023-04-25T01:42:05.079Z,61.05
2023-04-25T01:44:31.720Z,60.86
2023-04-25T01:46:58.151Z,60.90
2023-04-25T01:49:24.772Z,61.04
2023-04-25T01:51:51.115Z,60.72
2023-04-25T01:54:17.959Z,60.68
2023-04-25T01:56:44.337Z,60.94
2023-04-25T01:59:10.717Z,60.71
2023-04-25T02:01:37.221Z,60.61
2023-04-25T02:04:04.205Z,60.83
2023-04-25T02:06:30.657Z,60.95
2023-04-25T02:08:57.041Z,60.57
2023-04-25T02:11:23.719Z,60.88
2023-04-25T02:13:50.569Z,60.76
2023-04-25T02:16:17.201Z,60.48
2023-04-25T02:18:43.917Z,60.69
2023-04-25T02:21:10.459Z,60.65
2023-04-25T02:23:36.826Z,60.59
2023-04-25T02:26:03.671Z,60.53
2023-04-25T02:28:30.536Z,60.56
2023-04-25T02:30:57.223Z,60.45
2023-04-25T02:33:23.726Z,60.54
2023-04-25T02:35:50.447Z,60.74
2023-04-25T02:38:17.134Z,60.65
2023-04-25T02:40:43.697Z,60.81
2023-04-25T02:43:10.402Z,60.67
2023-04-25T02:45:37.394Z,60.36
2023-04-25T02:48:03.848Z,60.34
2023-04-25T02:50:30.606Z,60.47
2023-04-25T02:52:57.686Z,60.56
2023-04-25T02:55:26.254Z,60.65
2023-04-25T02:57:54.554Z,60.33
2023-04-25T03:00:21.464Z,60.48
2023-04-25T03:02:48.012Z,60.45
2023-04-25T03:05:14.600Z,60.56
2023-04-25T03:07:40.926Z,60.35
2023-04-25T03:10:07.662Z,60.48
2023-04-25T03:12:34.213Z,60.34
2023-04-25T03:15:00.629Z,60.22
2023-04-25T03:17:27.518Z,60.33
2023-04-25T03:19:54.099Z,60.31
2023-04-25T03:22:20.653Z,60.38
2023-04-25T03:24:47.167Z,60.18
2023-04-25T03:27:13.703Z,60.18
2023-04-25T03:29:40.394Z,60.21
2023-04-25T03:32:07.281Z,60.46
2023-04-25T03:34:34.524Z,60.16
2023-04-25T03:37:01.046Z,60.19
2023-04-25T03:39:27.439Z,60.38
2023-04-25T03:41:54.408Z,60.08
2023-04-25T03:44:20.823Z,60.06
2023-04-25T03:46:47.274Z,60.27
2023-04-25T03:49:13.873Z,60.38
2023-04-25T03:51:40.241Z,60.00
2023-04-25T03:54:06.548Z,60.10
2023-04-25T03:56:33.234Z,60.16
2023-04-25T03:58:59.705Z,59.93
2023-04-25T04:01:26.232Z,59.88
2023-04-25T04:03:53.121Z,59.92
2023-04-25T04:06:20.157Z,59.80
2023-04-25T04:08:46.557Z,59.95
2023-04-25T04:11:13.059Z,60.18
2023-04-25T04:13:39.846Z,60.13
2023-04-25T04:16:06.232Z,59.90
2023-04-25T04:18:32.670Z,59.73
2023-04-25T04:20:59.375Z,60.00
2023-04-25T04:23:25.806Z,60.03
2023-04-25T04:25:52.352Z,59.76
2023-04-25T04:28:18.752Z,59.84
2023-04-25T04:30:46.546Z,59.89
2023-04-25T04:33:13.101Z,59.93
2023-04-25T04:35:39.916Z,60.06
2023-04-25T04:38:06.485Z,60.14
2023-04-25T04:40:33.316Z,60.06
2023-04-25T04:43:00.047Z,60.09
2023-04-25T04:45:26.779Z,59.73
2023-04-25T04:47:53.262Z,60.08
2023-04-25T04:50:20.229Z,59.89
2023-04-25T04:52:46.761Z,59.98
2023-04-25T04:55:13.260Z,59.83
2023-04-25T04:57:39.913Z,59.73
2023-04-25T05:00:06.336Z,59.67
2023-04-25T05:02:33.298Z,59.88
2023-04-25T05:04:59.823Z,59.97
2023-04-25T05:07:26.900Z,59.72
2023-04-25T05:09:53.256Z,59.78
2023-04-25T05:12:19.647Z,59.66
2023-04-25T05:14:46.073Z,59.87
2023-04-25T05:17:12.459Z,59.98
2023-04-25T05:19:38.976Z,59.73
2023-04-25T05:22:05.382Z,59.60
2023-04-25T05:24:31.730Z,59.93
2023-04-25T05:26:58.134Z,59.76
2023-04-25T05:29:24.659Z,59.77
2023-04-25T05:31:51.109Z,59.59
2023-04-25T05:34:17.938Z,59.61
2023-04-25T05:36:44.301Z,59.56
2023-04-25T05:39:10.706Z,59.76
2023-04-25T05:41:37.138Z,59.63
2023-04-25T05:44:03.607Z,59.65
2023-04-25T05:46:30.525Z,59.94
2023-04-25T05:48:57.349Z,59.93
2023-04-25T05:51:24.043Z,59.61
2023-04-25T05:53:51.235Z,59.71
2023-04-25T05:56:18.139Z,59.80
2023-04-25T05:58:45.651Z,59.32
2023-04-25T06:01:12.276Z,59.17
2023-04-25T06:03:39.127Z,59.54
2023-04-25T06:06:06.718Z,59.41
2023-04-25T06:08:33.241Z,59.47
2023-04-25T06:11:00.177Z,59.11
2023-04-25T06:13:26.597Z,59.42
2023-04-25T06:15:53.196Z,59.13
2023-04-25T06:18:19.897Z,59.32
2023-04-25T06:20:46.779Z,59.38
2023-04-25T06:23:13.320Z,59.47
2023-04-25T06:25:40.044Z,59.27
2023-04-25T06:28:07.312Z,59.46
2023-04-25T06:30:33.688Z,59.24
2023-04-25T06:33:00.111Z,59.51
2023-04-25T06:35:28.206Z,59.26
2023-04-25T06:37:54.956Z,59.34
2023-04-25T06:40:21.629Z,59.56
2023-04-25T06:42:48.426Z,59.48
2023-04-25T06:45:14.741Z,59.69
2023-04-25T06:47:42.433Z,59.06
2023-04-25T06:50:09.349Z,59.45
2023-04-25T06:52:35.823Z,59.67
2023-04-25T06:55:02.361Z,59.45
2023-04-25T06:57:29.275Z,59.63
2023-04-25T06:59:57.402Z,59.65
2023-04-25T07:02:24.448Z,59.40
2023-04-25T07:04:51.045Z,59.38
2023-04-25T07:07:17.699Z,59.79
2023-04-25T07:09:44.243Z,59.71
2023-04-25T07:12:10.979Z,59.70
2023-04-25T07:14:37.544Z,59.62
2023-04-25T07:17:04.064Z,59.63
2023-04-25T07:19:30.852Z,59.83
2023-04-25T07:21:57.329Z,59.84
2023-04-25T07:24:23.797Z,59.78
2023-04-25T07:26:50.364Z,59.88
2023-04-25T07:29:17.031Z,60.00
2023-04-25T07:31:43.717Z,59.75
2023-04-25T07:34:11.338Z,59.71
2023-04-25T07:36:37.745Z,59.65
2023-04-25T07:39:04.937Z,59.91
2023-04-25T07:41:31.311Z,59.96
2023-04-25T07:43:57.756Z,59.99
2023-04-25T07:46:24.332Z,59.72
2023-04-25T07:48:51.562Z,59.98
2023-04-25T07:51:18.354Z,60.02
2023-04-25T07:53:44.819Z,59.94
2023-04-25T07:56:11.550Z,60.10
2023-04-25T07:58:37.976Z,59.81
2023-04-25T08:01:04.791Z,60.08
2023-04-25T08:03:31.787Z,59.75
2023-04-25T08:05:58.959Z,59.82
2023-04-25T08:08:25.459Z,59.71
2023-04-25T08:10:51.858Z,59.63
2023-04-25T08:13:18.776Z,59.88
2023-04-25T08:15:45.230Z,59.75
2023-04-25T08:18:11.691Z,59.93
2023-04-25T08:20:38.186Z,59.88
2023-04-25T08:23:04.671Z,59.81
2023-04-25T08:25:31.251Z,60.22
2023-04-25T08:27:57.985Z,59.84
2023-04-25T08:30:25.655Z,59.88
2023-04-25T08:32:52.368Z,60.02
2023-04-25T08:35:18.838Z,59.76
2023-04-25T08:37:45.623Z,60.03
2023-04-25T08:40:12.271Z,59.90
2023-04-25T08:42:39.007Z,60.01
2023-04-25T08:45:07.039Z,59.83
2023-04-25T08:47:33.897Z,59.92
2023-04-25T08:50:00.391Z,60.03
2023-04-25T08:52:27.235Z,60.05
2023-04-25T08:54:53.619Z,60.00
2023-04-25T08:57:20.157Z,60.13
2023-04-25T08:59:47.037Z,60.10
2023-04-25T09:02:13.906Z,59.99
2023-04-25T09:04:40.388Z,60.17
2023-04-25T09:07:06.713Z,59.97
2023-04-25T09:09:33.269Z,60.16
2023-04-25T09:11:59.672Z,59.84
2023-04-25T09:14:26.227Z,60.10
2023-04-25T09:16:52.881Z,59.85
2023-04-25T09:19:19.317Z,60.05
2023-04-25T09:21:46.664Z,59.89
2023-04-25T09:24:13.224Z,59.91
2023-04-25T09:26:40.479Z,60.08
2023-04-25T09:29:06.904Z,59.86
2023-04-25T09:31:33.260Z,60.05
2023-04-25T09:33:59.900Z,60.25
2023-04-25T09:36:27.660Z,59.90
2023-04-25T09:38:54.213Z,60.04
2023-04-25T09:41:20.838Z,59.91
2023-04-25T09:43:47.752Z,60.15
2023-04-25T09:46:14.316Z,60.18
2023-04-25T09:48:40.739Z,60.18
2023-04-25T09:51:07.246Z,60.06
2023-04-25T09:53:34.547Z,60.20
2023-04-25T09:56:01.158Z,60.19
2023-04-25T09:58:28.342Z,59.77
2023-04-25T10:00:55.337Z,59.84
2023-04-25T10:03:22.489Z,60.03
2023-04-25T10:05:48.958Z,59.79
2023-04-25T10:08:16.343Z,59.91
2023-04-25T10:10:43.023Z,59.90
2023-04-25T10:13:09.852Z,60.19
2023-04-25T10:15:39.655Z,59.94
2023-04-25T10:18:07.538Z,59.96
2023-04-25T10:20:34.022Z,59.95
2023-04-25T10:23:00.512Z,59.92
2023-04-25T10:25:27.562Z,59.97
2023-04-25T10:27:54.223Z,60.06
2023-04-25T10:30:20.791Z,60.10
2023-04-25T10:32:47.187Z,60.18
2023-04-25T10:35:13.697Z,59.87
2023-04-25T10:37:40.857Z,60.11
2023-04-25T10:40:07.335Z,59.75
2023-04-25T10:42:33.957Z,60.04
2023-04-25T10:45:00.560Z,59.87
2023-04-25T10:47:27.293Z,59.94
2023-04-25T10:49:53.709Z,59.88
2023-04-25T10:52:20.050Z,60.04
2023-04-25T10:54:46.847Z,60.11
2023-04-25T10:57:13.403Z,60.07
2023-04-25T10:59:39.723Z,60.13
2023-04-25T11:02:06.331Z,60.20
2023-04-25T11:04:33.444Z,59.84
2023-04-25T11:07:06.518Z,59.82
2023-04-25T11:09:33.771Z,59.90
2023-04-25T11:12:00.795Z,60.01
2023-04-25T11:14:27.313Z,59.90
2023-04-25T11:16:53.652Z,59.90
2023-04-25T11:19:20.457Z,60.09
2023-04-25T11:21:47.134Z,59.83
2023-04-25T11:24:13.604Z,59.74
2023-04-25T11:32:13.261Z,60.25
2023-04-25T11:34:40.588Z,59.96
2023-04-25T11:37:07.708Z,60.06
2023-04-25T11:39:34.112Z,59.94
2023-04-25T11:42:01.219Z,59.93
2023-04-25T11:44:29.107Z,59.99
2023-04-25T11:46:55.477Z,59.98
2023-04-25T11:49:22.178Z,60.15
2023-04-25T11:51:48.550Z,59.80
2023-04-25T11:54:15.848Z,59.96
2023-04-25T11:56:42.572Z,60.01
2023-04-25T11:59:09.421Z,59.90
2023-04-25T12:01:36.245Z,59.97
2023-04-25T12:04:03.006Z,59.96
2023-04-25T12:06:31.542Z,59.77
2023-04-25T12:08:58.070Z,59.62
2023-04-25T12:11:24.663Z,59.71
2023-04-25T12:13:51.540Z,59.70
2023-04-25T12:16:18.605Z,59.71
2023-04-25T12:18:45.256Z,59.67
2023-04-25T12:21:11.849Z,59.83
2023-04-25T12:26:22.743Z,59.26
2023-04-25T12:28:49.363Z,59.57
2023-04-25T12:31:15.994Z,59.38
2023-04-25T12:33:42.436Z,59.25
2023-04-25T12:36:08.796Z,59.55
2023-04-25T12:38:35.486Z,59.23
2023-04-25T12:41:01.935Z,59.14
2023-04-25T12:43:28.738Z,59.40
2023-04-25T12:45:55.179Z,59.23
2023-04-25T12:48:21.968Z,59.19
2023-04-25T12:50:48.666Z,59.03
2023-04-25T12:53:15.404Z,59.40
2023-04-25T12:55:42.184Z,59.33
2023-04-25T12:58:08.682Z,59.20
2023-04-25T13:00:35.186Z,59.05
2023-04-25T13:03:02.180Z,59.42
2023-04-25T13:05:29.019Z,58.95
2023-04-25T13:07:55.373Z,59.08
2023-04-25T13:10:22.075Z,58.89
2023-04-25T13:12:48.792Z,59.03
2023-04-25T13:15:15.446Z,59.17
2023-04-25T13:17:42.223Z,58.84
2023-04-25T13:20:09.190Z,58.69
2023-04-25T13:22:35.528Z,58.85
2023-04-25T13:25:01.962Z,59.06
2023-04-25T13:27:28.390Z,59.12
2023-04-25T13:29:54.909Z,58.69
2023-04-25T13:32:21.426Z,58.67
2023-04-25T13:34:47.943Z,58.83
2023-04-25T13:37:14.426Z,58.78
2023-04-25T13:39:41.282Z,58.88
2023-04-25T13:42:07.585Z,58.74
2023-04-25T13:44:34.336Z,58.66
2023-04-25T13:47:01.090Z,58.81
2023-04-25T13:49:27.578Z,58.49
2023-04-25T13:51:53.891Z,58.49
2023-04-25T13:54:20.478Z,58.52
2023-04-25T13:56:46.926Z,58.60
2023-04-25T13:59:13.266Z,58.67
2023-04-25T14:01:39.640Z,58.63
2023-04-25T14:04:06.267Z,58.62
2023-04-25T14:06:32.746Z,58.66
2023-04-25T14:08:59.343Z,58.59
2023-04-25T14:11:25.751Z,58.79
2023-04-25T14:13:53.196Z,58.52
2023-04-25T14:16:19.896Z,58.60
2023-04-25T14:18:47.428Z,58.29
2023-04-25T14:21:13.824Z,58.29
2023-04-25T14:23:40.412Z,58.59
2023-04-25T14:26:06.829Z,58.28
2023-04-25T14:28:33.231Z,58.40
2023-04-25T14:30:59.729Z,58.07
2023-04-25T14:33:26.247Z,58.40
2023-04-25T14:35:52.698Z,58.16
2023-04-25T14:38:19.015Z,58.48
2023-04-25T14:40:45.436Z,58.18
2023-04-25T14:43:11.804Z,58.13
2023-04-25T14:45:38.131Z,58.32
2023-04-25T14:48:04.665Z,58.07
2023-04-25T14:50:31.337Z,58.10
2023-04-25T14:52:57.745Z,58.25
2023-04-25T14:55:24.224Z,58.38
2023-04-25T14:57:50.702Z,58.24
2023-04-25T15:00:17.768Z,58.30
2023-04-25T15:02:44.283Z,58.06
2023-04-25T15:05:10.989Z,58.43
2023-04-25T15:07:37.673Z,58.33
2023-04-25T15:10:04.035Z,58.33
2023-04-25T15:12:30.668Z,57.98
2023-04-25T15:14:57.086Z,58.22
2023-04-25T15:17:23.580Z,58.07
2023-04-25T15:19:49.916Z,58.25
2023-04-25T15:22:16.238Z,57.95
2023-04-25T15:24:42.817Z,58.13
2023-04-25T15:27:09.258Z,58.26
2023-04-25T15:29:35.567Z,58.38
2023-04-25T15:32:02.164Z,58.41
2023-04-25T15:34:28.639Z,58.28
2023-04-25T15:36:55.102Z,58.18
2023-04-25T15:39:21.533Z,58.05
2023-04-25T15:41:47.965Z,58.24
2023-04-25T15:44:14.278Z,58.30
2023-04-25T15:46:40.734Z,58.27
2023-04-25T15:49:07.173Z,58.11
2023-04-25T15:51:33.470Z,58.15
2023-04-25T15:53:59.748Z,57.92
2023-04-25T15:56:26.633Z,58.26
2023-04-25T15:58:52.936Z,58.22
2023-04-25T16:01:19.595Z,58.24
2023-04-25T16:03:46.417Z,57.96
2023-04-25T16:06:13.302Z,58.02
2023-04-25T16:08:39.910Z,57.81
2023-04-25T16:11:06.676Z,58.22
2023-04-25T16:13:33.209Z,58.21
2023-04-25T16:15:59.733Z,58.01
2023-04-25T16:18:26.249Z,57.85
2023-04-25T16:20:52.791Z,57.37
2023-04-25T16:23:19.382Z,57.75
2023-04-25T16:25:46.879Z,57.83
2023-04-25T16:28:13.214Z,57.37
2023-04-25T16:30:39.610Z,57.89
2023-04-25T16:33:06.729Z,58.38
2023-04-25T16:35:33.742Z,58.53
2023-04-25T16:38:00.537Z,58.44
2023-04-25T16:40:28.730Z,58.64
2023-04-25T16:42:55.292Z,58.74
2023-04-25T16:45:21.660Z,58.67
2023-04-25T16:47:48.429Z,58.88
2023-04-25T16:50:15.171Z,58.93
2023-04-25T16:52:43.746Z,59.25
2023-04-25T16:55:11.217Z,58.65
2023-04-25T16:57:38.055Z,59.24
2023-04-25T17:00:04.395Z,59.32
2023-04-25T17:02:30.964Z,59.37
2023-04-25T17:04:57.457Z,59.72
2023-04-25T17:07:23.980Z,59.68
2023-04-25T17:09:50.347Z,59.53
2023-04-25T17:12:16.817Z,59.48
2023-04-25T17:14:43.213Z,59.22
2023-04-25T17:17:09.739Z,59.52
2023-04-25T17:19:36.262Z,58.33
2023-04-25T17:22:02.658Z,57.37
2023-04-25T17:24:29.018Z,57.41
2023-04-25T17:26:55.457Z,57.78
2023-04-25T17:29:21.887Z,57.83
2023-04-25T17:31:48.267Z,57.87
2023-04-25T17:34:14.639Z,58.29
2023-04-25T17:36:40.999Z,58.42
2023-04-25T17:39:07.781Z,58.52
2023-04-25T17:41:34.261Z,58.46
2023-04-25T17:44:00.717Z,58.50
2023-04-25T17:46:27.227Z,58.70
2023-04-25T17:48:54.415Z,59.12
2023-04-25T17:51:21.114Z,59.25
2023-04-25T17:53:47.570Z,58.96
2023-04-25T17:56:25.925Z,59.34
2023-04-25T17:58:53.235Z,59.18
2023-04-25T18:01:19.897Z,59.52
2023-04-25T18:03:46.526Z,59.44
2023-04-25T18:06:13.315Z,59.55
2023-04-25T18:08:39.993Z,59.36
2023-04-25T18:11:06.798Z,59.35
2023-04-25T18:13:33.160Z,59.62
2023-04-25T18:16:00.249Z,59.07
2023-04-25T18:18:26.662Z,59.18
2023-04-25T18:20:53.258Z,59.30
2023-04-25T18:23:19.816Z,59.30
2023-04-25T18:25:46.445Z,59.14
2023-04-25T18:28:12.857Z,59.16
2023-04-25T18:30:39.370Z,59.16
2023-04-25T18:33:06.073Z,59.58
2023-04-25T18:35:32.528Z,59.34
2023-04-25T18:37:59.246Z,59.70
2023-04-25T18:40:25.644Z,59.68
2023-04-25T18:42:52.088Z,59.43
2023-04-25T18:45:26.556Z,59.73
2023-04-25T18:47:53.377Z,59.96
2023-04-25T18:50:19.919Z,59.85
2023-04-25T18:52:46.285Z,60.07
2023-04-25T18:55:12.696Z,60.10
2023-04-25T18:57:39.144Z,59.85
2023-04-25T19:00:05.545Z,60.27
2023-04-25T19:02:32.024Z,59.81
2023-04-25T19:04:58.474Z,60.07
2023-04-25T19:07:24.930Z,59.89
2023-04-25T19:09:51.356Z,59.83
2023-04-25T19:12:17.964Z,59.96
2023-04-25T19:14:44.521Z,59.61
2023-04-25T19:17:12.279Z,59.72
2023-04-25T19:19:39.268Z,59.50
2023-04-25T19:22:06.181Z,59.43
2023-04-25T19:24:34.357Z,59.60
2023-04-25T19:27:01.129Z,59.73
2023-04-25T19:29:28.747Z,59.73
2023-04-25T19:31:55.324Z,59.54
2023-04-25T19:34:21.710Z,59.59
2023-04-25T19:36:48.346Z,59.49
2023-04-25T19:39:15.399Z,59.70
2023-04-25T19:41:41.909Z,59.49
2023-04-25T19:44:08.654Z,59.72
2023-04-25T19:46:35.578Z,59.47
2023-04-25T19:49:03.134Z,59.54
2023-04-25T19:51:31.406Z,59.43
2023-04-25T19:53:57.843Z,59.71
2023-04-25T19:56:24.135Z,59.48
2023-04-25T19:58:51.302Z,59.12
2023-04-25T20:01:17.965Z,59.48
2023-04-25T20:03:44.597Z,59.05
2023-04-25T20:06:11.269Z,59.45
2023-04-25T20:08:38.107Z,59.16
2023-04-25T20:11:04.479Z,59.20
2023-04-25T20:13:30.827Z,59.32
2023-04-25T20:15:57.352Z,58.99
2023-04-25T20:18:23.667Z,59.10
2023-04-25T20:20:50.090Z,58.70
2023-04-25T20:23:16.726Z,58.84
2023-04-25T20:25:43.194Z,58.42
2023-04-25T20:28:09.707Z,58.75
2023-04-25T20:30:36.094Z,58.70
2023-04-25T20:33:02.570Z,58.69
2023-04-25T20:35:29.271Z,58.72
2023-04-25T20:37:55.606Z,59.14
2023-04-25T20:40:22.027Z,58.01
2023-04-25T20:42:48.726Z,58.33
2023-04-25T20:45:15.273Z,58.20
2023-04-25T20:47:43.173Z,57.68
2023-04-25T20:50:09.741Z,57.97
2023-04-25T20:52:36.516Z,58.23
2023-04-25T20:55:03.333Z,58.02
2023-04-25T20:57:30.788Z,57.81
2023-04-25T20:59:57.606Z,58.11
2023-04-25T21:02:24.119Z,57.99
2023-04-25T21:04:50.972Z,57.51
2023-04-25T21:07:17.576Z,57.54
2023-04-25T21:09:44.085Z,57.92
2023-04-25T21:12:10.392Z,58.00
2023-04-25T21:14:36.819Z,57.54
2023-04-25T21:17:03.168Z,57.95
2023-04-25T21:19:29.874Z,57.86
2023-04-25T21:21:56.452Z,57.89
2023-04-25T21:24:23.149Z,57.50
2023-04-25T21:26:49.748Z,57.98
2023-04-25T21:29:16.521Z,57.91
2023-04-25T21:31:43.115Z,57.67
2023-04-25T21:34:09.643Z,58.08
2023-04-25T21:36:36.130Z,57.80
2023-04-25T21:39:02.491Z,57.81
2023-04-25T21:41:28.877Z,57.86
2023-04-25T21:43:55.569Z,58.00
2023-04-25T21:46:23.708Z,57.72
2023-04-25T21:48:50.724Z,57.49
2023-04-25T21:51:17.443Z,57.51
2023-04-25T21:53:43.788Z,57.33
2023-04-25T21:56:11.105Z,57.67
2023-04-25T21:58:37.837Z,57.67
2023-04-25T22:01:04.236Z,57.54
2023-04-25T22:03:31.330Z,57.50
2023-04-25T22:05:57.860Z,57.37
2023-04-25T22:08:24.299Z,57.33
2023-04-25T22:10:50.734Z,57.46
2023-04-25T22:13:17.298Z,57.32
2023-04-25T22:15:43.689Z,57.66
2023-04-25T22:18:10.311Z,57.60
2023-04-25T22:20:36.806Z,57.83
2023-04-25T22:23:03.322Z,57.46
2023-04-25T22:25:30.771Z,57.32
2023-04-25T22:27:57.426Z,57.35
2023-04-25T22:30:23.803Z,57.05
2023-04-25T22:32:50.257Z,56.94
2023-04-25T22:35:16.888Z,57.24
2023-04-25T22:37:43.179Z,56.78
2023-04-25T22:40:09.535Z,56.66
2023-04-25T22:42:35.958Z,56.84
2023-04-25T22:45:02.648Z,56.61
2023-04-25T22:47:30.130Z,56.55
2023-04-25T22:49:56.671Z,56.76
2023-04-25T22:52:23.069Z,56.80
2023-04-25T22:57:40.629Z,56.51
2023-04-25T23:00:06.989Z,56.48
2023-04-25T23:02:34.172Z,56.49
2023-04-25T23:05:00.638Z,56.41
2023-04-25T23:07:27.368Z,56.45
2023-04-25T23:09:54.305Z,56.61
2023-04-25T23:12:20.665Z,56.50
2023-04-25T23:14:47.306Z,56.50
2023-04-25T23:17:13.647Z,56.27
2023-04-25T23:19:40.296Z,56.45
2023-04-25T23:22:06.732Z,56.31
2023-04-25T23:24:33.058Z,56.10
2023-04-25T23:26:59.400Z,56.14
2023-04-25T23:29:25.859Z,56.13
2023-04-25T23:31:52.665Z,56.28
2023-04-25T23:34:18.995Z,56.05
2023-04-25T23:36:45.655Z,56.17
2023-04-25T23:39:12.007Z,56.18
2023-04-25T23:41:38.359Z,56.10
2023-04-25T23:44:04.731Z,56.05
2023-04-25T23:46:31.251Z,55.73
2023-04-25T23:48:57.696Z,56.24
2023-04-25T23:51:24.138Z,55.92
2023-04-25T23:53:50.474Z,56.26
2023-04-25T23:56:16.856Z,56.18
2023-04-25T23:58:44.005Z,55.76
